sensor_id;sensor_type;location;lat;lon;timestamp;P1;durP1;ratioP1;P2;durP2;ratioP2
72105;SDS011;59975;47.646;18.318;2023-04-03T00:01:07;10.90;;;4.77;;
72105;SDS011;59975;47.646;18.318;2023-04-03T00:03:33;8.18;;;4.00;;
72105;SDS011;59975;47.646;18.318;2023-04-03T00:05:58;6.17;;;3.77;;
72105;SDS011;59975;47.646;18.318;2023-04-03T00:08:25;6.95;;;4.15;;
72105;SDS011;59975;47.646;18.318;2023-04-03T00:10:50;9.90;;;4.23;;
72105;SDS011;59975;47.646;18.318;2023-04-03T00:13:16;8.77;;;4.73;;
72105;SDS011;59975;47.646;18.318;2023-04-03T00:15:41;10.18;;;4.22;;
72105;SDS011;59975;47.646;18.318;2023-04-03T00:18:07;11.65;;;5.03;;
72105;SDS011;59975;47.646;18.318;2023-04-03T00:20:33;6.90;;;4.33;;
72105;SDS011;59975;47.646;18.318;2023-04-03T00:23:00;8.75;;;5.15;;
72105;SDS011;59975;47.646;18.318;2023-04-03T00:25:26;10.18;;;5.70;;
72105;SDS011;59975;47.646;18.318;2023-04-03T00:27:52;11.30;;;5.05;;
72105;SDS011;59975;47.646;18.318;2023-04-03T00:30:18;7.40;;;4.53;;
72105;SDS011;59975;47.646;18.318;2023-04-03T00:32:46;8.68;;;4.88;;
72105;SDS011;59975;47.646;18.318;2023-04-03T00:35:16;13.37;;;4.77;;
72105;SDS011;59975;47.646;18.318;2023-04-03T00:37:42;8.50;;;3.92;;
72105;SDS011;59975;47.646;18.318;2023-04-03T00:40:09;9.95;;;4.90;;
72105;SDS011;59975;47.646;18.318;2023-04-03T00:42:36;9.25;;;4.40;;
72105;SDS011;59975;47.646;18.318;2023-04-03T00:47:28;10.53;;;3.40;;
72105;SDS011;59975;47.646;18.318;2023-04-03T00:49:55;7.47;;;4.28;;
72105;SDS011;59975;47.646;18.318;2023-04-03T00:52:23;6.30;;;3.78;;
72105;SDS011;59975;47.646;18.318;2023-04-03T00:54:53;4.72;;;3.55;;
72105;SDS011;59975;47.646;18.318;2023-04-03T00:57:22;8.13;;;4.47;;
72105;SDS011;59975;47.646;18.318;2023-04-03T00:59:50;10.13;;;4.45;;
72105;SDS011;59975;47.646;18.318;2023-04-03T01:02:19;6.53;;;3.88;;
72105;SDS011;59975;47.646;18.318;2023-04-03T01:04:45;7.77;;;4.43;;
72105;SDS011;59975;47.646;18.318;2023-04-03T01:07:16;5.78;;;3.30;;
72105;SDS011;59975;47.646;18.318;2023-04-03T01:09:52;7.22;;;4.30;;
72105;SDS011;59975;47.646;18.318;2023-04-03T01:14:48;11.13;;;4.40;;
72105;SDS011;59975;47.646;18.318;2023-04-03T01:17:29;9.82;;;4.80;;
72105;SDS011;59975;47.646;18.318;2023-04-03T01:25:30;6.07;;;3.27;;
72105;SDS011;59975;47.646;18.318;2023-04-03T01:27:57;10.75;;;4.05;;
72105;SDS011;59975;47.646;18.318;2023-04-03T01:30:24;11.38;;;4.20;;
72105;SDS011;59975;47.646;18.318;2023-04-03T01:33:06;7.68;;;4.13;;
72105;SDS011;59975;47.646;18.318;2023-04-03T01:35:31;7.38;;;4.45;;
72105;SDS011;59975;47.646;18.318;2023-04-03T01:37:57;8.70;;;3.40;;
72105;SDS011;59975;47.646;18.318;2023-04-03T01:40:22;10.67;;;4.33;;
72105;SDS011;59975;47.646;18.318;2023-04-03T01:42:48;7.85;;;3.92;;
72105;SDS011;59975;47.646;18.318;2023-04-03T01:45:13;5.77;;;3.60;;
72105;SDS011;59975;47.646;18.318;2023-04-03T01:47:39;6.13;;;3.95;;
72105;SDS011;59975;47.646;18.318;2023-04-03T01:50:05;9.07;;;4.33;;
72105;SDS011;59975;47.646;18.318;2023-04-03T01:52:31;5.68;;;3.50;;
72105;SDS011;59975;47.646;18.318;2023-04-03T01:54:56;7.37;;;4.73;;
72105;SDS011;59975;47.646;18.318;2023-04-03T01:57:22;5.47;;;3.90;;
72105;SDS011;59975;47.646;18.318;2023-04-03T01:59:47;7.13;;;4.60;;
72105;SDS011;59975;47.646;18.318;2023-04-03T02:02:12;8.82;;;4.30;;
72105;SDS011;59975;47.646;18.318;2023-04-03T02:04:39;9.27;;;3.60;;
72105;SDS011;59975;47.646;18.318;2023-04-03T02:07:05;6.78;;;4.28;;
72105;SDS011;59975;47.646;18.318;2023-04-03T02:09:31;5.85;;;3.60;;
72105;SDS011;59975;47.646;18.318;2023-04-03T02:11:56;4.28;;;2.60;;
72105;SDS011;59975;47.646;18.318;2023-04-03T02:14:22;8.57;;;4.00;;
72105;SDS011;59975;47.646;18.318;2023-04-03T02:16:48;5.75;;;4.28;;
72105;SDS011;59975;47.646;18.318;2023-04-03T02:19:14;7.80;;;3.85;;
72105;SDS011;59975;47.646;18.318;2023-04-03T02:21:40;6.27;;;3.93;;
72105;SDS011;59975;47.646;18.318;2023-04-03T02:24:05;5.50;;;3.43;;
72105;SDS011;59975;47.646;18.318;2023-04-03T02:26:31;6.95;;;3.50;;
72105;SDS011;59975;47.646;18.318;2023-04-03T02:28:56;4.95;;;3.42;;
72105;SDS011;59975;47.646;18.318;2023-04-03T02:31:22;8.93;;;3.43;;
72105;SDS011;59975;47.646;18.318;2023-04-03T02:33:47;9.17;;;3.73;;
72105;SDS011;59975;47.646;18.318;2023-04-03T02:36:13;7.20;;;3.33;;
72105;SDS011;59975;47.646;18.318;2023-04-03T02:38:38;7.93;;;3.53;;
72105;SDS011;59975;47.646;18.318;2023-04-03T02:41:05;6.17;;;4.30;;
72105;SDS011;59975;47.646;18.318;2023-04-03T02:43:32;9.68;;;4.07;;
72105;SDS011;59975;47.646;18.318;2023-04-03T02:45:58;6.28;;;3.85;;
72105;SDS011;59975;47.646;18.318;2023-04-03T02:48:24;11.93;;;4.27;;
72105;SDS011;59975;47.646;18.318;2023-04-03T02:50:50;10.50;;;4.13;;
72105;SDS011;59975;47.646;18.318;2023-04-03T02:53:16;8.13;;;3.50;;
72105;SDS011;59975;47.646;18.318;2023-04-03T02:55:42;5.03;;;3.23;;
72105;SDS011;59975;47.646;18.318;2023-04-03T02:58:07;5.82;;;2.72;;
72105;SDS011;59975;47.646;18.318;2023-04-03T03:00:33;7.45;;;3.55;;
72105;SDS011;59975;47.646;18.318;2023-04-03T03:02:59;5.97;;;3.53;;
72105;SDS011;59975;47.646;18.318;2023-04-03T03:05:25;7.83;;;4.27;;
72105;SDS011;59975;47.646;18.318;2023-04-03T03:07:52;7.15;;;3.35;;
72105;SDS011;59975;47.646;18.318;2023-04-03T03:10:18;8.10;;;3.90;;
72105;SDS011;59975;47.646;18.318;2023-04-03T03:12:44;8.23;;;3.90;;
72105;SDS011;59975;47.646;18.318;2023-04-03T03:15:09;6.45;;;2.88;;
72105;SDS011;59975;47.646;18.318;2023-04-03T03:17:35;9.57;;;3.77;;
72105;SDS011;59975;47.646;18.318;2023-04-03T03:20:01;7.47;;;3.58;;
72105;SDS011;59975;47.646;18.318;2023-04-03T03:22:28;5.85;;;3.53;;
72105;SDS011;59975;47.646;18.318;2023-04-03T03:24:53;8.43;;;3.70;;
72105;SDS011;59975;47.646;18.318;2023-04-03T03:27:19;6.07;;;3.50;;
72105;SDS011;59975;47.646;18.318;2023-04-03T03:29:45;7.25;;;3.45;;
72105;SDS011;59975;47.646;18.318;2023-04-03T03:32:11;5.53;;;3.20;;
72105;SDS011;59975;47.646;18.318;2023-04-03T03:34:36;8.47;;;3.53;;
72105;SDS011;59975;47.646;18.318;2023-04-03T03:37:02;9.57;;;4.73;;
72105;SDS011;59975;47.646;18.318;2023-04-03T03:39:27;6.97;;;3.78;;
72105;SDS011;59975;47.646;18.318;2023-04-03T03:41:53;10.07;;;4.60;;
72105;SDS011;59975;47.646;18.318;2023-04-03T03:44:19;8.90;;;4.20;;
72105;SDS011;59975;47.646;18.318;2023-04-03T03:46:45;7.95;;;3.75;;
72105;SDS011;59975;47.646;18.318;2023-04-03T03:49:10;6.63;;;3.90;;
72105;SDS011;59975;47.646;18.318;2023-04-03T03:51:36;7.10;;;3.95;;
72105;SDS011;59975;47.646;18.318;2023-04-03T03:54:02;8.50;;;4.70;;
72105;SDS011;59975;47.646;18.318;2023-04-03T03:56:28;10.00;;;4.00;;
72105;SDS011;59975;47.646;18.318;2023-04-03T03:58:54;8.43;;;4.40;;
72105;SDS011;59975;47.646;18.318;2023-04-03T04:01:21;16.23;;;4.32;;
72105;SDS011;59975;47.646;18.318;2023-04-03T04:03:47;10.20;;;4.20;;
72105;SDS011;59975;47.646;18.318;2023-04-03T04:06:13;9.10;;;4.07;;
72105;SDS011;59975;47.646;18.318;2023-04-03T04:08:38;8.85;;;4.30;;
72105;SDS011;59975;47.646;18.318;2023-04-03T04:11:19;6.90;;;3.47;;
72105;SDS011;59975;47.646;18.318;2023-04-03T04:13:46;9.37;;;3.20;;
72105;SDS011;59975;47.646;18.318;2023-04-03T04:16:12;7.32;;;3.25;;
72105;SDS011;59975;47.646;18.318;2023-04-03T04:18:37;8.50;;;3.90;;
72105;SDS011;59975;47.646;18.318;2023-04-03T04:21:03;14.63;;;4.03;;
72105;SDS011;59975;47.646;18.318;2023-04-03T04:23:28;9.83;;;4.57;;
72105;SDS011;59975;47.646;18.318;2023-04-03T04:25:53;13.15;;;3.78;;
72105;SDS011;59975;47.646;18.318;2023-04-03T04:28:19;7.30;;;3.93;;
72105;SDS011;59975;47.646;18.318;2023-04-03T04:30:45;6.63;;;3.83;;
72105;SDS011;59975;47.646;18.318;2023-04-03T04:33:10;6.63;;;3.70;;
72105;SDS011;59975;47.646;18.318;2023-04-03T04:35:36;8.03;;;4.17;;
72105;SDS011;59975;47.646;18.318;2023-04-03T04:38:01;8.57;;;4.35;;
72105;SDS011;59975;47.646;18.318;2023-04-03T04:40:27;8.68;;;3.97;;
72105;SDS011;59975;47.646;18.318;2023-04-03T04:42:53;7.97;;;4.35;;
72105;SDS011;59975;47.646;18.318;2023-04-03T04:45:19;8.17;;;4.13;;
72105;SDS011;59975;47.646;18.318;2023-04-03T04:47:45;9.52;;;3.50;;
72105;SDS011;59975;47.646;18.318;2023-04-03T04:50:10;7.63;;;3.60;;
72105;SDS011;59975;47.646;18.318;2023-04-03T04:52:36;7.68;;;4.10;;
72105;SDS011;59975;47.646;18.318;2023-04-03T04:55:02;6.28;;;4.03;;
72105;SDS011;59975;47.646;18.318;2023-04-03T04:57:28;7.57;;;4.37;;
72105;SDS011;59975;47.646;18.318;2023-04-03T04:59:54;8.32;;;3.55;;
72105;SDS011;59975;47.646;18.318;2023-04-03T05:02:19;8.80;;;4.33;;
72105;SDS011;59975;47.646;18.318;2023-04-03T05:04:45;8.07;;;3.60;;
72105;SDS011;59975;47.646;18.318;2023-04-03T05:07:10;8.20;;;4.18;;
72105;SDS011;59975;47.646;18.318;2023-04-03T05:09:36;8.37;;;3.83;;
72105;SDS011;59975;47.646;18.318;2023-04-03T05:12:01;10.40;;;4.47;;
72105;SDS011;59975;47.646;18.318;2023-04-03T05:14:28;6.75;;;3.17;;
72105;SDS011;59975;47.646;18.318;2023-04-03T05:16:53;7.90;;;3.92;;
72105;SDS011;59975;47.646;18.318;2023-04-03T05:19:20;5.67;;;3.63;;
72105;SDS011;59975;47.646;18.318;2023-04-03T05:21:46;5.00;;;3.58;;
72105;SDS011;59975;47.646;18.318;2023-04-03T05:24:12;5.05;;;3.45;;
72105;SDS011;59975;47.646;18.318;2023-04-03T05:26:38;7.20;;;4.57;;
72105;SDS011;59975;47.646;18.318;2023-04-03T05:29:04;3.72;;;2.55;;
72105;SDS011;59975;47.646;18.318;2023-04-03T05:31:30;5.90;;;3.50;;
72105;SDS011;59975;47.646;18.318;2023-04-03T05:33:55;5.65;;;3.55;;
72105;SDS011;59975;47.646;18.318;2023-04-03T05:36:22;6.72;;;3.42;;
72105;SDS011;59975;47.646;18.318;2023-04-03T05:38:47;5.30;;;3.60;;
72105;SDS011;59975;47.646;18.318;2023-04-03T05:41:14;6.78;;;3.70;;
72105;SDS011;59975;47.646;18.318;2023-04-03T05:43:46;4.93;;;3.30;;
72105;SDS011;59975;47.646;18.318;2023-04-03T05:46:41;5.90;;;3.23;;
72105;SDS011;59975;47.646;18.318;2023-04-03T05:49:23;4.32;;;3.00;;
72105;SDS011;59975;47.646;18.318;2023-04-03T05:55:17;5.90;;;3.35;;
72105;SDS011;59975;47.646;18.318;2023-04-03T05:57:43;4.70;;;2.83;;
72105;SDS011;59975;47.646;18.318;2023-04-03T06:03:27;5.07;;;3.35;;
72105;SDS011;59975;47.646;18.318;2023-04-03T06:05:55;4.07;;;3.22;;
72105;SDS011;59975;47.646;18.318;2023-04-03T06:08:21;3.55;;;2.67;;
72105;SDS011;59975;47.646;18.318;2023-04-03T06:11:02;6.18;;;3.72;;
72105;SDS011;59975;47.646;18.318;2023-04-03T06:13:29;5.28;;;3.95;;
72105;SDS011;59975;47.646;18.318;2023-04-03T06:16:18;6.90;;;3.58;;
72105;SDS011;59975;47.646;18.318;2023-04-03T06:18:51;6.53;;;3.58;;
72105;SDS011;59975;47.646;18.318;2023-04-03T06:21:19;7.20;;;3.47;;
72105;SDS011;59975;47.646;18.318;2023-04-03T06:23:45;6.45;;;3.45;;
72105;SDS011;59975;47.646;18.318;2023-04-03T06:26:11;4.05;;;3.20;;
72105;SDS011;59975;47.646;18.318;2023-04-03T06:28:48;5.20;;;3.05;;
72105;SDS011;59975;47.646;18.318;2023-04-03T06:31:39;6.07;;;3.93;;
72105;SDS011;59975;47.646;18.318;2023-04-03T06:34:17;6.55;;;3.47;;
72105;SDS011;59975;47.646;18.318;2023-04-03T06:37:00;5.30;;;3.15;;
72105;SDS011;59975;47.646;18.318;2023-04-03T06:39:37;3.75;;;2.75;;
72105;SDS011;59975;47.646;18.318;2023-04-03T06:50:11;5.18;;;3.00;;
72105;SDS011;59975;47.646;18.318;2023-04-03T06:59:23;4.78;;;3.17;;
72105;SDS011;59975;47.646;18.318;2023-04-03T07:01:49;4.73;;;3.33;;
72105;SDS011;59975;47.646;18.318;2023-04-03T07:04:18;7.05;;;3.42;;
72105;SDS011;59975;47.646;18.318;2023-04-03T07:07:06;6.05;;;3.00;;
72105;SDS011;59975;47.646;18.318;2023-04-03T07:09:34;5.03;;;2.97;;
72105;SDS011;59975;47.646;18.318;2023-04-03T07:12:00;4.27;;;3.17;;
72105;SDS011;59975;47.646;18.318;2023-04-03T07:14:32;4.50;;;2.50;;
72105;SDS011;59975;47.646;18.318;2023-04-03T07:17:01;4.53;;;3.72;;
72105;SDS011;59975;47.646;18.318;2023-04-03T07:19:31;5.35;;;3.58;;
72105;SDS011;59975;47.646;18.318;2023-04-03T07:32:46;2.55;;;1.38;;
72105;SDS011;59975;47.646;18.318;2023-04-03T07:35:22;8.38;;;1.95;;
72105;SDS011;59975;47.646;18.318;2023-04-03T07:38:01;2.05;;;1.30;;
72105;SDS011;59975;47.646;18.318;2023-04-03T07:40:27;3.60;;;1.97;;
72105;SDS011;59975;47.646;18.318;2023-04-03T07:43:03;2.70;;;1.77;;
72105;SDS011;59975;47.646;18.318;2023-04-03T07:45:29;1.80;;;1.40;;
72105;SDS011;59975;47.646;18.318;2023-04-03T07:48:00;3.47;;;2.03;;
72105;SDS011;59975;47.646;18.318;2023-04-03T07:57:02;4.32;;;1.92;;
72105;SDS011;59975;47.646;18.318;2023-04-03T08:02:31;4.53;;;2.08;;
72105;SDS011;59975;47.646;18.318;2023-04-03T08:09:35;2.53;;;1.70;;
72105;SDS011;59975;47.646;18.318;2023-04-03T08:26:27;4.10;;;1.80;;
72105;SDS011;59975;47.646;18.318;2023-04-03T08:32:29;2.83;;;1.98;;
72105;SDS011;59975;47.646;18.318;2023-04-03T08:35:17;2.72;;;1.95;;
72105;SDS011;59975;47.646;18.318;2023-04-03T08:37:53;3.08;;;1.70;;
72105;SDS011;59975;47.646;18.318;2023-04-03T08:50:27;3.20;;;1.70;;
72105;SDS011;59975;47.646;18.318;2023-04-03T08:56:25;3.20;;;2.43;;
72105;SDS011;59975;47.646;18.318;2023-04-03T08:58:59;5.30;;;1.75;;
72105;SDS011;59975;47.646;18.318;2023-04-03T09:12:25;4.67;;;2.17;;
72105;SDS011;59975;47.646;18.318;2023-04-03T09:32:46;5.90;;;2.50;;
72105;SDS011;59975;47.646;18.318;2023-04-03T09:46:49;7.37;;;3.23;;
72105;SDS011;59975;47.646;18.318;2023-04-03T09:49:24;4.05;;;2.55;;
72105;SDS011;59975;47.646;18.318;2023-04-03T09:51:50;5.43;;;2.83;;
72105;SDS011;59975;47.646;18.318;2023-04-03T09:54:36;5.88;;;2.60;;
72105;SDS011;59975;47.646;18.318;2023-04-03T09:57:14;4.10;;;2.60;;
72105;SDS011;59975;47.646;18.318;2023-04-03T09:59:57;12.80;;;2.70;;
72105;SDS011;59975;47.646;18.318;2023-04-03T10:02:31;4.53;;;2.60;;
72105;SDS011;59975;47.646;18.318;2023-04-03T10:05:01;4.72;;;2.90;;
72105;SDS011;59975;47.646;18.318;2023-04-03T10:07:34;10.23;;;3.17;;
72105;SDS011;59975;47.646;18.318;2023-04-03T10:10:15;4.75;;;2.72;;
72105;SDS011;59975;47.646;18.318;2023-04-03T10:12:47;5.67;;;2.53;;
72105;SDS011;59975;47.646;18.318;2023-04-03T10:15:14;3.75;;;2.30;;
72105;SDS011;59975;47.646;18.318;2023-04-03T10:20:51;7.00;;;2.78;;
72105;SDS011;59975;47.646;18.318;2023-04-03T10:23:26;3.60;;;2.55;;
72105;SDS011;59975;47.646;18.318;2023-04-03T10:38:33;6.82;;;2.47;;
72105;SDS011;59975;47.646;18.318;2023-04-03T10:44:03;7.90;;;2.05;;
72105;SDS011;59975;47.646;18.318;2023-04-03T10:47:20;4.85;;;2.42;;
72105;SDS011;59975;47.646;18.318;2023-04-03T10:52:56;2.85;;;1.60;;
72105;SDS011;59975;47.646;18.318;2023-04-03T10:57:53;2.60;;;1.90;;
72105;SDS011;59975;47.646;18.318;2023-04-03T11:03:30;5.28;;;2.38;;
72105;SDS011;59975;47.646;18.318;2023-04-03T11:05:59;3.45;;;2.40;;
72105;SDS011;59975;47.646;18.318;2023-04-03T11:08:32;6.13;;;1.80;;
72105;SDS011;59975;47.646;18.318;2023-04-03T11:11:04;2.95;;;2.22;;
72105;SDS011;59975;47.646;18.318;2023-04-03T11:13:38;2.85;;;2.10;;
72105;SDS011;59975;47.646;18.318;2023-04-03T11:16:17;3.53;;;2.05;;
72105;SDS011;59975;47.646;18.318;2023-04-03T11:18:56;4.07;;;2.70;;
72105;SDS011;59975;47.646;18.318;2023-04-03T11:21:28;4.80;;;2.00;;
72105;SDS011;59975;47.646;18.318;2023-04-03T11:23:59;5.07;;;2.53;;
72105;SDS011;59975;47.646;18.318;2023-04-03T11:26:35;6.18;;;2.40;;
72105;SDS011;59975;47.646;18.318;2023-04-03T11:29:11;2.88;;;2.00;;
72105;SDS011;59975;47.646;18.318;2023-04-03T11:34:39;3.17;;;2.20;;
72105;SDS011;59975;47.646;18.318;2023-04-03T11:37:16;2.60;;;1.83;;
72105;SDS011;59975;47.646;18.318;2023-04-03T11:39:51;4.25;;;2.10;;
72105;SDS011;59975;47.646;18.318;2023-04-03T11:42:35;5.38;;;2.53;;
72105;SDS011;59975;47.646;18.318;2023-04-03T11:55:41;3.40;;;2.00;;
72105;SDS011;59975;47.646;18.318;2023-04-03T11:58:27;1.97;;;1.50;;
72105;SDS011;59975;47.646;18.318;2023-04-03T12:08:50;2.40;;;1.63;;
72105;SDS011;59975;47.646;18.318;2023-04-03T12:34:34;8.52;;;2.40;;
72105;SDS011;59975;47.646;18.318;2023-04-03T12:37:44;7.68;;;2.42;;
72105;SDS011;59975;47.646;18.318;2023-04-03T12:40:37;2.95;;;1.80;;
72105;SDS011;59975;47.646;18.318;2023-04-03T12:43:20;3.63;;;2.25;;
72105;SDS011;59975;47.646;18.318;2023-04-03T12:46:02;3.28;;;2.22;;
72105;SDS011;59975;47.646;18.318;2023-04-03T12:48:53;3.72;;;2.50;;
72105;SDS011;59975;47.646;18.318;2023-04-03T12:51:27;3.58;;;2.20;;
72105;SDS011;59975;47.646;18.318;2023-04-03T12:54:16;5.10;;;2.47;;
72105;SDS011;59975;47.646;18.318;2023-04-03T12:56:46;5.05;;;2.08;;
72105;SDS011;59975;47.646;18.318;2023-04-03T12:59:22;3.05;;;2.20;;
72105;SDS011;59975;47.646;18.318;2023-04-03T13:01:55;3.42;;;2.22;;
72105;SDS011;59975;47.646;18.318;2023-04-03T13:04:25;2.88;;;2.15;;
72105;SDS011;59975;47.646;18.318;2023-04-03T13:06:53;2.03;;;1.50;;
72105;SDS011;59975;47.646;18.318;2023-04-03T13:11:52;9.13;;;2.00;;
72105;SDS011;59975;47.646;18.318;2023-04-03T13:14:25;5.68;;;2.20;;
72105;SDS011;59975;47.646;18.318;2023-04-03T13:19:41;5.03;;;1.83;;
72105;SDS011;59975;47.646;18.318;2023-04-03T13:22:11;9.23;;;2.20;;
72105;SDS011;59975;47.646;18.318;2023-04-03T13:24:56;8.85;;;2.00;;
72105;SDS011;59975;47.646;18.318;2023-04-03T13:27:24;3.65;;;1.90;;
72105;SDS011;59975;47.646;18.318;2023-04-03T13:29:52;5.70;;;2.53;;
72105;SDS011;59975;47.646;18.318;2023-04-03T13:32:22;8.18;;;2.03;;
72105;SDS011;59975;47.646;18.318;2023-04-03T13:34:50;2.80;;;1.40;;
72105;SDS011;59975;47.646;18.318;2023-04-03T13:37:23;6.00;;;1.80;;
72105;SDS011;59975;47.646;18.318;2023-04-03T13:42:32;4.43;;;1.50;;
72105;SDS011;59975;47.646;18.318;2023-04-03T13:45:18;7.20;;;1.60;;
72105;SDS011;59975;47.646;18.318;2023-04-03T13:47:49;7.35;;;2.05;;
72105;SDS011;59975;47.646;18.318;2023-04-03T13:57:58;9.23;;;2.50;;
72105;SDS011;59975;47.646;18.318;2023-04-03T14:02:56;6.97;;;1.60;;
72105;SDS011;59975;47.646;18.318;2023-04-03T14:05:22;10.02;;;4.28;;
72105;SDS011;59975;47.646;18.318;2023-04-03T14:07:50;6.67;;;2.77;;
72105;SDS011;59975;47.646;18.318;2023-04-03T14:10:16;6.40;;;2.03;;
72105;SDS011;59975;47.646;18.318;2023-04-03T14:12:42;2.40;;;1.98;;
72105;SDS011;59975;47.646;18.318;2023-04-03T14:15:16;5.18;;;1.90;;
72105;SDS011;59975;47.646;18.318;2023-04-03T14:17:42;4.00;;;1.80;;
72105;SDS011;59975;47.646;18.318;2023-04-03T14:20:10;5.22;;;1.83;;
72105;SDS011;59975;47.646;18.318;2023-04-03T14:22:41;5.40;;;2.10;;
72105;SDS011;59975;47.646;18.318;2023-04-03T14:25:07;5.60;;;1.80;;
72105;SDS011;59975;47.646;18.318;2023-04-03T14:27:38;6.15;;;1.95;;
72105;SDS011;59975;47.646;18.318;2023-04-03T14:30:08;2.95;;;1.90;;
72105;SDS011;59975;47.646;18.318;2023-04-03T14:32:39;3.97;;;1.92;;
72105;SDS011;59975;47.646;18.318;2023-04-03T14:35:06;5.43;;;1.73;;
72105;SDS011;59975;47.646;18.318;2023-04-03T14:37:32;2.67;;;1.42;;
72105;SDS011;59975;47.646;18.318;2023-04-03T14:40:00;6.55;;;1.95;;
72105;SDS011;59975;47.646;18.318;2023-04-03T14:42:33;10.07;;;2.00;;
72105;SDS011;59975;47.646;18.318;2023-04-03T14:45:01;6.93;;;2.30;;
72105;SDS011;59975;47.646;18.318;2023-04-03T14:47:30;2.47;;;1.57;;
72105;SDS011;59975;47.646;18.318;2023-04-03T14:50:04;6.07;;;1.83;;
72105;SDS011;59975;47.646;18.318;2023-04-03T14:52:34;2.33;;;1.13;;
72105;SDS011;59975;47.646;18.318;2023-04-03T14:55:02;3.03;;;1.50;;
72105;SDS011;59975;47.646;18.318;2023-04-03T14:57:31;4.85;;;1.73;;
72105;SDS011;59975;47.646;18.318;2023-04-03T14:59:58;4.13;;;1.40;;
72105;SDS011;59975;47.646;18.318;2023-04-03T15:04:58;4.30;;;1.60;;
72105;SDS011;59975;47.646;18.318;2023-04-03T15:07:27;5.93;;;1.55;;
72105;SDS011;59975;47.646;18.318;2023-04-03T15:09:55;4.68;;;1.85;;
72105;SDS011;59975;47.646;18.318;2023-04-03T15:12:22;3.30;;;1.60;;
72105;SDS011;59975;47.646;18.318;2023-04-03T15:14:49;4.00;;;1.27;;
72105;SDS011;59975;47.646;18.318;2023-04-03T15:17:19;6.05;;;1.65;;
72105;SDS011;59975;47.646;18.318;2023-04-03T15:19:48;7.80;;;2.75;;
72105;SDS011;59975;47.646;18.318;2023-04-03T15:22:18;5.22;;;1.90;;
72105;SDS011;59975;47.646;18.318;2023-04-03T15:24:45;6.17;;;1.93;;
72105;SDS011;59975;47.646;18.318;2023-04-03T15:27:11;4.45;;;1.42;;
72105;SDS011;59975;47.646;18.318;2023-04-03T15:29:38;3.00;;;1.20;;
72105;SDS011;59975;47.646;18.318;2023-04-03T15:32:05;2.80;;;1.38;;
72105;SDS011;59975;47.646;18.318;2023-04-03T15:34:30;2.63;;;1.43;;
72105;SDS011;59975;47.646;18.318;2023-04-03T15:36:56;4.55;;;1.45;;
72105;SDS011;59975;47.646;18.318;2023-04-03T15:39:22;3.80;;;1.83;;
72105;SDS011;59975;47.646;18.318;2023-04-03T15:41:50;5.93;;;2.25;;
72105;SDS011;59975;47.646;18.318;2023-04-03T15:44:17;5.13;;;1.30;;
72105;SDS011;59975;47.646;18.318;2023-04-03T15:46:43;5.50;;;1.80;;
72105;SDS011;59975;47.646;18.318;2023-04-03T15:49:10;3.25;;;1.35;;
72105;SDS011;59975;47.646;18.318;2023-04-03T15:51:37;2.55;;;1.42;;
72105;SDS011;59975;47.646;18.318;2023-04-03T15:54:03;5.27;;;1.90;;
72105;SDS011;59975;47.646;18.318;2023-04-03T15:56:28;3.60;;;1.63;;
72105;SDS011;59975;47.646;18.318;2023-04-03T15:58:54;3.10;;;1.80;;
72105;SDS011;59975;47.646;18.318;2023-04-03T16:01:20;4.55;;;2.20;;
72105;SDS011;59975;47.646;18.318;2023-04-03T16:03:45;2.17;;;1.27;;
72105;SDS011;59975;47.646;18.318;2023-04-03T16:06:30;3.17;;;1.35;;
72105;SDS011;59975;47.646;18.318;2023-04-03T16:08:58;5.68;;;1.42;;
72105;SDS011;59975;47.646;18.318;2023-04-03T16:11:24;2.37;;;1.27;;
72105;SDS011;59975;47.646;18.318;2023-04-03T16:13:51;3.78;;;1.50;;
72105;SDS011;59975;47.646;18.318;2023-04-03T16:16:16;2.83;;;1.40;;
72105;SDS011;59975;47.646;18.318;2023-04-03T16:18:42;4.28;;;1.20;;
72105;SDS011;59975;47.646;18.318;2023-04-03T16:21:07;3.43;;;1.30;;
72105;SDS011;59975;47.646;18.318;2023-04-03T16:23:33;3.20;;;1.10;;
72105;SDS011;59975;47.646;18.318;2023-04-03T16:25:59;2.60;;;1.50;;
72105;SDS011;59975;47.646;18.318;2023-04-03T16:28:25;5.20;;;1.92;;
72105;SDS011;59975;47.646;18.318;2023-04-03T16:30:51;3.90;;;1.87;;
72105;SDS011;59975;47.646;18.318;2023-04-03T16:33:16;5.32;;;1.92;;
72105;SDS011;59975;47.646;18.318;2023-04-03T16:35:42;2.57;;;0.97;;
72105;SDS011;59975;47.646;18.318;2023-04-03T16:38:08;4.35;;;1.40;;
72105;SDS011;59975;47.646;18.318;2023-04-03T16:40:34;3.47;;;1.27;;
72105;SDS011;59975;47.646;18.318;2023-04-03T16:43:00;3.05;;;1.00;;
72105;SDS011;59975;47.646;18.318;2023-04-03T16:45:26;4.82;;;1.40;;
72105;SDS011;59975;47.646;18.318;2023-04-03T16:47:52;2.35;;;0.93;;
72105;SDS011;59975;47.646;18.318;2023-04-03T16:50:18;4.82;;;1.80;;
72105;SDS011;59975;47.646;18.318;2023-04-03T16:52:45;4.32;;;1.65;;
72105;SDS011;59975;47.646;18.318;2023-04-03T16:55:11;1.77;;;1.13;;
72105;SDS011;59975;47.646;18.318;2023-04-03T16:57:37;3.53;;;1.23;;
72105;SDS011;59975;47.646;18.318;2023-04-03T17:00:03;7.18;;;1.73;;
72105;SDS011;59975;47.646;18.318;2023-04-03T17:02:30;2.22;;;1.10;;
72105;SDS011;59975;47.646;18.318;2023-04-03T17:04:56;5.15;;;1.80;;
72105;SDS011;59975;47.646;18.318;2023-04-03T17:07:22;2.33;;;1.00;;
72105;SDS011;59975;47.646;18.318;2023-04-03T17:09:49;2.75;;;0.88;;
72105;SDS011;59975;47.646;18.318;2023-04-03T17:12:15;2.15;;;1.20;;
72105;SDS011;59975;47.646;18.318;2023-04-03T17:14:41;1.67;;;0.70;;
72105;SDS011;59975;47.646;18.318;2023-04-03T17:17:07;6.25;;;1.58;;
72105;SDS011;59975;47.646;18.318;2023-04-03T17:19:33;7.30;;;1.27;;
72105;SDS011;59975;47.646;18.318;2023-04-03T17:22:00;2.85;;;1.35;;
72105;SDS011;59975;47.646;18.318;2023-04-03T17:24:26;5.43;;;1.60;;
72105;SDS011;59975;47.646;18.318;2023-04-03T17:26:52;5.07;;;1.35;;
72105;SDS011;59975;47.646;18.318;2023-04-03T17:29:18;3.60;;;1.07;;
72105;SDS011;59975;47.646;18.318;2023-04-03T17:31:43;3.90;;;1.40;;
72105;SDS011;59975;47.646;18.318;2023-04-03T17:34:09;3.30;;;0.97;;
72105;SDS011;59975;47.646;18.318;2023-04-03T17:36:37;2.03;;;1.30;;
72105;SDS011;59975;47.646;18.318;2023-04-03T17:39:03;5.18;;;1.40;;
72105;SDS011;59975;47.646;18.318;2023-04-03T17:41:29;3.90;;;1.42;;
72105;SDS011;59975;47.646;18.318;2023-04-03T17:43:54;2.13;;;1.00;;
72105;SDS011;59975;47.646;18.318;2023-04-03T17:46:21;1.83;;;1.02;;
72105;SDS011;59975;47.646;18.318;2023-04-03T17:48:47;2.20;;;1.00;;
72105;SDS011;59975;47.646;18.318;2023-04-03T17:51:18;5.78;;;1.52;;
72105;SDS011;59975;47.646;18.318;2023-04-03T17:53:45;5.78;;;1.20;;
72105;SDS011;59975;47.646;18.318;2023-04-03T17:56:12;9.38;;;1.65;;
72105;SDS011;59975;47.646;18.318;2023-04-03T17:58:40;1.95;;;1.00;;
72105;SDS011;59975;47.646;18.318;2023-04-03T18:01:10;3.90;;;1.10;;
72105;SDS011;59975;47.646;18.318;2023-04-03T18:03:44;1.75;;;0.95;;
72105;SDS011;59975;47.646;18.318;2023-04-03T18:06:11;4.20;;;1.40;;
72105;SDS011;59975;47.646;18.318;2023-04-03T18:08:40;8.35;;;1.38;;
72105;SDS011;59975;47.646;18.318;2023-04-03T18:11:09;1.40;;;1.00;;
72105;SDS011;59975;47.646;18.318;2023-04-03T18:13:35;6.93;;;1.03;;
72105;SDS011;59975;47.646;18.318;2023-04-03T18:16:03;3.08;;;0.90;;
72105;SDS011;59975;47.646;18.318;2023-04-03T18:18:31;3.85;;;1.30;;
72105;SDS011;59975;47.646;18.318;2023-04-03T18:20:56;7.17;;;1.13;;
72105;SDS011;59975;47.646;18.318;2023-04-03T18:23:23;9.95;;;1.85;;
72105;SDS011;59975;47.646;18.318;2023-04-03T18:25:49;9.05;;;0.85;;